Time;durP1;ratioP1;P1;durP2;ratioP2;P2;SDS_P1;SDS_P2;PMS_P1;PMS_P2;Temp;Humidity;BMP_temperature;BMP_pressure;BME280_temperature;BME280_humidity;BME280_pressure;Samples;Min_cycle;Max_cycle;Signal;HPM_P1;HPM_P2
2023/07/15 00:00:43;;;;;;;11.35;4.93;;;;;;;;;;2582959;23;20000;-95
2023/07/15 00:01:44;;;;;;;9.88;5.63;;;;;;;;;;2570546;23;20075;-96
2023/07/15 00:02:47;;;;;;;7.63;5.43;;;;;;;;;;2582527;23;20050;-95
2023/07/15 00:03:49;;;;;;;12.15;6.22;;;;;;;;;;2570926;23;20322;-95
2023/07/15 00:04:49;;;;;;;12.60;4.78;;;;;;;;;;2570272;23;19996;-95
2023/07/15 00:05:50;;;;;;;9.63;5.13;;;;;;;;;;2570474;23;20003;-95
2023/07/15 00:06:50;;;;;;;11.13;5.47;;;;;;;;;;2582976;23;19996;-95
2023/07/15 00:07:51;;;;;;;9.60;5.07;;;;;;;;;;2582431;23;20019;-95
2023/07/15 00:08:53;;;;;;;10.50;5.68;;;;;;;;;;2570219;23;20107;-96
2023/07/15 00:09:54;;;;;;;8.63;4.95;;;;;;;;;;2570337;23;19992;-96
2023/07/15 00:10:55;;;;;;;9.43;5.13;;;;;;;;;;2569975;23;20008;-95
2023/07/15 00:11:58;;;;;;;8.18;5.18;;;;;;;;;;2582665;23;20390;-96
2023/07/15 00:13:00;;;;;;;11.38;4.85;;;;;;;;;;2570037;23;20024;-96
2023/07/15 00:14:01;;;;;;;10.73;5.53;;;;;;;;;;2574751;23;20011;-94
2023/07/15 00:15:05;;;;;;;9.35;5.07;;;;;;;;;;2570372;23;19996;-95
2023/07/15 00:16:05;;;;;;;8.93;5.10;;;;;;;;;;2570761;23;20004;-95
2023/07/15 00:17:08;;;;;;;9.05;5.30;;;;;;;;;;2569998;23;20411;-94
2023/07/15 00:18:14;;;;;;;8.95;5.10;;;;;;;;;;2569796;23;19997;-95
2023/07/15 00:19:15;;;;;;;8.30;5.03;;;;;;;;;;2570791;23;19998;-96
2023/07/15 00:20:15;;;;;;;11.02;5.15;;;;;;;;;;2569953;23;20055;-96
2023/07/15 00:21:22;;;;;;;9.52;5.22;;;;;;;;;;2574885;23;20151;-95
2023/07/15 00:22:29;;;;;;;9.05;5.13;;;;;;;;;;2582999;22;20012;-94
2023/07/15 00:23:30;;;;;;;9.30;5.38;;;;;;;;;;2581711;22;20008;-96
2023/07/15 00:24:31;;;;;;;13.55;5.25;;;;;;;;;;2580879;22;20003;-94
2023/07/15 00:25:34;;;;;;;10.88;4.63;;;;;;;;;;2586964;23;20499;-96
2023/07/15 00:26:36;;;;;;;8.48;4.80;;;;;;;;;;2573428;23;20005;-96
2023/07/15 00:27:37;;;;;;;9.20;5.18;;;;;;;;;;2570540;23;20465;-96
2023/07/15 00:28:38;;;;;;;12.80;5.53;;;;;;;;;;2582675;23;20083;-95
2023/07/15 00:29:38;;;;;;;9.77;5.28;;;;;;;;;;2570018;23;19997;-95
2023/07/15 00:30:41;;;;;;;7.10;5.20;;;;;;;;;;2569944;23;20052;-96
2023/07/15 00:31:43;;;;;;;10.18;4.55;;;;;;;;;;2570587;23;20079;-95
2023/07/15 00:32:49;;;;;;;8.30;5.10;;;;;;;;;;2570360;23;20047;-94
2023/07/15 00:33:50;;;;;;;8.43;4.63;;;;;;;;;;2576098;23;20004;-95
2023/07/15 00:34:51;;;;;;;7.38;5.50;;;;;;;;;;2570256;23;19997;-96
2023/07/15 00:35:52;;;;;;;11.13;5.82;;;;;;;;;;2570020;23;19996;-95
2023/07/15 00:36:53;;;;;;;9.23;5.60;;;;;;;;;;2582615;23;19996;-95
2023/07/15 00:37:53;;;;;;;11.93;5.22;;;;;;;;;;2570263;23;20009;-95
2023/07/15 00:38:53;;;;;;;10.70;5.35;;;;;;;;;;2582651;23;20109;-95
2023/07/15 00:39:55;;;;;;;8.38;4.40;;;;;;;;;;2599106;22;20407;-95
2023/07/15 00:40:55;;;;;;;12.93;5.10;;;;;;;;;;2582488;23;20068;-95
2023/07/15 00:42:02;;;;;;;8.95;4.78;;;;;;;;;;2570068;23;20024;-96
2023/07/15 00:43:40;;;;;;;10.50;5.15;;;;;;;;;;2546468;23;20005;-96
2023/07/15 00:44:40;;;;;;;9.05;4.90;;;;;;;;;;2574208;23;20129;-95
2023/07/15 00:45:40;;;;;;;8.65;4.88;;;;;;;;;;2570383;23;20000;-96
2023/07/15 00:46:59;;;;;;;9.95;4.68;;;;;;;;;;2582113;23;20042;-95
2023/07/15 00:48:10;;;;;;;7.75;4.43;;;;;;;;;;2573544;23;20000;-96
2023/07/15 00:49:19;;;;;;;;;;;;;;;;;;2572583;23;20382;-96
2023/07/15 00:50:20;;;;;;;11.00;5.88;;;;;;;;;;2571563;23;19903;-96
2023/07/15 00:51:22;;;;;;;8.57;5.25;;;;;;;;;;2570074;23;20490;-96
2023/07/15 00:52:23;;;;;;;8.85;4.88;;;;;;;;;;2587091;22;20074;-96
2023/07/15 00:53:23;;;;;;;8.75;5.03;;;;;;;;;;2582321;23;19991;-95
2023/07/15 00:54:24;;;;;;;6.72;4.80;;;;;;;;;;2570100;23;20020;-95
2023/07/15 00:55:24;;;;;;;8.02;4.28;;;;;;;;;;2569945;23;20336;-95
2023/07/15 00:56:26;;;;;;;10.43;5.05;;;;;;;;;;2569764;23;19993;-96
2023/07/15 00:57:27;;;;;;;12.60;5.03;;;;;;;;;;2569842;23;19996;-96
2023/07/15 00:58:27;;;;;;;9.32;4.70;;;;;;;;;;2569600;23;20358;-96
2023/07/15 00:59:29;;;;;;;8.85;4.50;;;;;;;;;;2569338;23;20078;-95
2023/07/15 01:00:31;;;;;;;8.18;4.63;;;;;;;;;;2569995;23;19988;-95
2023/07/15 01:01:31;;;;;;;6.00;4.63;;;;;;;;;;2569992;23;20056;-96
2023/07/15 01:02:32;;;;;;;9.52;4.88;;;;;;;;;;2569422;23;19993;-96
2023/07/15 01:03:32;;;;;;;6.93;4.18;;;;;;;;;;2582015;23;19999;-95
2023/07/15 01:04:33;;;;;;;7.03;4.47;;;;;;;;;;2569520;23;20037;-96
2023/07/15 01:05:34;;;;;;;10.65;5.03;;;;;;;;;;2569424;23;20441;-96
2023/07/15 01:06:35;;;;;;;8.70;4.63;;;;;;;;;;2569305;23;20023;-96
2023/07/15 01:07:35;;;;;;;7.28;4.65;;;;;;;;;;2569755;23;20367;-96
2023/07/15 01:08:36;;;;;;;7.50;4.43;;;;;;;;;;2581827;23;20074;-96
2023/07/15 01:09:36;;;;;;;6.03;4.07;;;;;;;;;;2582236;23;20368;-96
2023/07/15 01:10:41;;;;;;;6.97;4.45;;;;;;;;;;2570086;23;20075;-96
2023/07/15 01:11:41;;;;;;;8.13;4.13;;;;;;;;;;2570562;23;20055;-96
2023/07/15 01:12:42;;;;;;;7.40;4.00;;;;;;;;;;2570008;23;20091;-96
2023/07/15 01:13:42;;;;;;;10.35;5.03;;;;;;;;;;2582102;23;20177;-96
2023/07/15 01:14:44;;;;;;;6.25;4.07;;;;;;;;;;2569947;23;20024;-96
2023/07/15 01:15:45;;;;;;;8.05;4.75;;;;;;;;;;2570195;23;20091;-96
2023/07/15 01:16:49;;;;;;;7.75;4.28;;;;;;;;;;2570315;23;20008;-96
2023/07/15 01:17:50;;;;;;;8.20;4.13;;;;;;;;;;2569852;23;20032;-96
2023/07/15 01:18:50;;;;;;;10.48;4.80;;;;;;;;;;2580966;23;20102;-96
2023/07/15 01:19:53;;;;;;;6.70;4.28;;;;;;;;;;2570710;23;19993;-96
2023/07/15 01:20:58;;;;;;;6.38;4.45;;;;;;;;;;2571058;23;20007;-94
2023/07/15 01:21:59;;;;;;;8.30;4.32;;;;;;;;;;2571612;23;19997;-94
2023/07/15 01:22:59;;;;;;;7.57;4.72;;;;;;;;;;2570468;23;19997;-95
2023/07/15 01:24:06;;;;;;;8.10;4.47;;;;;;;;;;2570436;23;20116;-95
2023/07/15 01:25:06;;;;;;;6.43;4.38;;;;;;;;;;2572393;23;20004;-94
2023/07/15 01:26:07;;;;;;;7.05;4.50;;;;;;;;;;2571864;23;20502;-93
2023/07/15 01:27:08;;;;;;;9.02;4.40;;;;;;;;;;2585836;23;20515;-93
2023/07/15 01:28:12;;;;;;;10.25;4.75;;;;;;;;;;2573598;23;20085;-94
2023/07/15 01:29:15;;;;;;;8.73;4.25;;;;;;;;;;2571719;23;19992;-95
2023/07/15 01:30:21;;;;;;;10.18;4.50;;;;;;;;;;2588224;22;19989;-94
2023/07/15 01:31:22;;;;;;;8.13;4.35;;;;;;;;;;2582502;23;19988;-95
2023/07/15 01:32:23;;;;;;;10.38;4.82;;;;;;;;;;2570201;23;20083;-95
2023/07/15 01:33:24;;;;;;;8.05;4.07;;;;;;;;;;2582208;23;20069;-96
2023/07/15 01:34:25;;;;;;;8.40;4.28;;;;;;;;;;2582403;23;20008;-96
2023/07/15 01:35:25;;;;;;;9.95;4.47;;;;;;;;;;2581928;23;19992;-96
2023/07/15 01:36:26;;;;;;;8.75;5.22;;;;;;;;;;2582213;23;20377;-96
2023/07/15 01:37:27;;;;;;;7.28;4.22;;;;;;;;;;2569972;23;20087;-95
2023/07/15 01:38:28;;;;;;;7.43;4.43;;;;;;;;;;2569723;23;20434;-95
2023/07/15 01:39:29;;;;;;;8.63;4.13;;;;;;;;;;2569936;23;19995;-95
2023/07/15 01:40:29;;;;;;;8.48;4.20;;;;;;;;;;2569838;23;20064;-95
2023/07/15 01:41:30;;;;;;;6.75;4.50;;;;;;;;;;2569718;23;20000;-95
2023/07/15 01:42:30;;;;;;;8.27;4.60;;;;;;;;;;2570098;23;20000;-96
2023/07/15 01:43:31;;;;;;;6.65;4.63;;;;;;;;;;2583801;23;20082;-95
2023/07/15 01:44:31;;;;;;;7.85;4.20;;;;;;;;;;2577510;23;19989;-95
2023/07/15 01:45:35;;;;;;;6.70;4.43;;;;;;;;;;2580828;22;19992;-95
2023/07/15 01:46:39;;;;;;;7.57;4.22;;;;;;;;;;2593757;22;19992;-94
2023/07/15 01:47:39;;;;;;;7.35;4.22;;;;;;;;;;2581879;22;20016;-95
2023/07/15 01:48:40;;;;;;;7.68;4.60;;;;;;;;;;2581148;22;19996;-95
2023/07/15 01:49:43;;;;;;;11.98;4.75;;;;;;;;;;2581314;23;20011;-96
2023/07/15 01:50:44;;;;;;;6.30;4.07;;;;;;;;;;2569014;23;20037;-96
2023/07/15 01:51:45;;;;;;;5.30;4.03;;;;;;;;;;2581300;22;20063;-96
2023/07/15 01:52:47;;;;;;;8.50;4.38;;;;;;;;;;2580158;23;20040;-95
2023/07/15 01:54:01;;;;;;;6.70;4.10;;;;;;;;;;1388874;23;10021969;-95
2023/07/15 01:55:01;;;;;;;10.00;4.43;;;;;;;;;;2155503;23;10000884;-94
2023/07/15 01:56:04;;;;;;;7.03;4.13;;;;;;;;;;2569969;23;20442;-95
2023/07/15 01:57:05;;;;;;;6.63;4.80;;;;;;;;;;2570203;23;20003;-96
2023/07/15 01:58:06;;;;;;;7.88;5.65;;;;;;;;;;2570507;23;20119;-95
2023/07/15 01:59:10;;;;;;;9.85;6.45;;;;;;;;;;2583222;23;20382;-95
2023/07/15 02:00:11;;;;;;;10.82;6.70;;;;;;;;;;2570855;23;20493;-95
2023/07/15 02:01:11;;;;;;;13.75;6.65;;;;;;;;;;2582722;23;19992;-96
2023/07/15 02:02:12;;;;;;;11.68;6.80;;;;;;;;;;2582193;23;20079;-96
2023/07/15 02:03:12;;;;;;;12.40;6.68;;;;;;;;;;2569439;23;20027;-95
2023/07/15 02:04:16;;;;;;;10.85;5.15;;;;;;;;;;2569207;23;19999;-95
2023/07/15 02:05:16;;;;;;;7.88;4.45;;;;;;;;;;2570123;23;20007;-95
2023/07/15 02:06:17;;;;;;;7.32;4.60;;;;;;;;;;2582120;23;20019;-96
2023/07/15 02:07:17;;;;;;;7.20;4.32;;;;;;;;;;2581933;23;20027;-95
2023/07/15 02:08:22;;;;;;;9.90;4.72;;;;;;;;;;2569250;23;19996;-96
2023/07/15 02:09:23;;;;;;;7.28;4.20;;;;;;;;;;2569953;23;19996;-96
2023/07/15 02:10:24;;;;;;;14.75;4.95;;;;;;;;;;2570002;23;20008;-95
2023/07/15 02:11:24;;;;;;;7.45;4.07;;;;;;;;;;2569837;23;20333;-95
2023/07/15 02:12:25;;;;;;;8.43;4.32;;;;;;;;;;2569580;23;20019;-96
2023/07/15 02:13:25;;;;;;;6.75;4.07;;;;;;;;;;2569260;23;20370;-96
2023/07/15 02:14:26;;;;;;;6.03;4.23;;;;;;;;;;2322935;23;5001329;-95
2023/07/15 02:15:26;;;;;;;7.43;4.07;;;;;;;;;;2557019;23;19997;-95
2023/07/15 02:16:27;;;;;;;8.05;4.07;;;;;;;;;;2569705;23;20048;-95
2023/07/15 02:17:27;;;;;;;9.38;4.40;;;;;;;;;;2139839;23;10001392;-96
2023/07/15 02:18:28;;;;;;;7.93;4.40;;;;;;;;;;2569954;23;20075;-93
2023/07/15 02:19:30;;;;;;;7.63;4.60;;;;;;;;;;2570414;23;19989;-96
2023/07/15 02:20:31;;;;;;;6.93;4.13;;;;;;;;;;2569679;23;20071;-94
2023/07/15 02:21:31;;;;;;;8.82;4.38;;;;;;;;;;2575689;23;20031;-95
2023/07/15 02:22:32;;;;;;;7.65;4.20;;;;;;;;;;2578962;23;20022;-94
2023/07/15 02:23:34;;;;;;;6.90;3.85;;;;;;;;;;2564751;23;19993;-95
2023/07/15 02:24:34;;;;;;;9.30;4.15;;;;;;;;;;2558843;23;20076;-96
2023/07/15 02:25:35;;;;;;;11.40;4.78;;;;;;;;;;2558648;23;20024;-94
2023/07/15 02:26:36;;;;;;;10.90;5.75;;;;;;;;;;2557820;23;20005;-95
2023/07/15 02:27:36;;;;;;;8.45;4.32;;;;;;;;;;2558544;23;20098;-96
2023/07/15 02:28:37;;;;;;;9.48;4.18;;;;;;;;;;2569694;23;19996;-96
2023/07/15 02:29:37;;;;;;;7.15;4.60;;;;;;;;;;2569550;23;20037;-95
2023/07/15 02:30:38;;;;;;;7.03;4.18;;;;;;;;;;2556947;23;20001;-94
2023/07/15 02:31:39;;;;;;;7.35;4.60;;;;;;;;;;2569394;23;20011;-94
2023/07/15 02:32:41;;;;;;;9.07;4.38;;;;;;;;;;2569635;23;20384;-94
2023/07/15 02:33:42;;;;;;;11.48;4.93;;;;;;;;;;2569381;23;20493;-94
2023/07/15 02:34:43;;;;;;;5.40;4.13;;;;;;;;;;2569473;23;19996;-95
2023/07/15 02:35:43;;;;;;;7.47;4.15;;;;;;;;;;2569240;23;19997;-96
2023/07/15 02:36:43;;;;;;;9.27;4.30;;;;;;;;;;2569781;23;19992;-96
2023/07/15 02:37:44;;;;;;;7.80;4.40;;;;;;;;;;2556720;23;20403;-95
2023/07/15 02:38:44;;;;;;;7.88;4.72;;;;;;;;;;2557284;23;20477;-95
2023/07/15 02:39:46;;;;;;;9.35;4.15;;;;;;;;;;2556906;23;20025;-96
2023/07/15 02:40:48;;;;;;;6.47;4.38;;;;;;;;;;2569335;23;20096;-94
2023/07/15 02:41:50;;;;;;;7.53;4.43;;;;;;;;;;2569536;23;20004;-94
2023/07/15 02:42:50;;;;;;;9.38;4.70;;;;;;;;;;2557129;23;19997;-96
2023/07/15 02:43:51;;;;;;;8.05;4.70;;;;;;;;;;2569303;23;20055;-95
2023/07/15 02:44:51;;;;;;;7.32;4.97;;;;;;;;;;2557087;23;20016;-94
2023/07/15 02:45:52;;;;;;;7.53;4.65;;;;;;;;;;2557017;23;20378;-96
2023/07/15 02:46:53;;;;;;;8.52;4.93;;;;;;;;;;2557248;23;20035;-95
2023/07/15 02:47:53;;;;;;;6.38;4.32;;;;;;;;;;2557588;23;20004;-96
2023/07/15 02:48:54;;;;;;;7.63;4.68;;;;;;;;;;2562420;23;20064;-95
2023/07/15 02:49:54;;;;;;;11.25;4.70;;;;;;;;;;2581073;23;20143;-96
2023/07/15 02:50:55;;;;;;;7.25;4.40;;;;;;;;;;2568569;23;20009;-96
2023/07/15 02:51:56;;;;;;;7.13;4.15;;;;;;;;;;2568585;23;20032;-96
2023/07/15 02:52:56;;;;;;;6.38;4.97;;;;;;;;;;2567397;23;20013;-96
2023/07/15 02:54:01;;;;;;;9.13;5.47;;;;;;;;;;2579850;23;20023;-96
2023/07/15 02:55:07;;;;;;;8.98;4.50;;;;;;;;;;2577222;23;20100;-96
2023/07/15 02:56:08;;;;;;;10.60;4.88;;;;;;;;;;2558170;23;19997;-96
2023/07/15 02:57:08;;;;;;;8.65;4.57;;;;;;;;;;2542975;23;20092;-96
2023/07/15 02:58:09;;;;;;;11.77;5.25;;;;;;;;;;2557013;23;20505;-96
2023/07/15 02:59:09;;;;;;;6.30;4.47;;;;;;;;;;2556953;23;20001;-96
2023/07/15 03:00:16;;;;;;;8.57;4.97;;;;;;;;;;2557116;23;19993;-96
2023/07/15 03:01:17;;;;;;;9.30;5.40;;;;;;;;;;2558612;23;20052;-95
2023/07/15 03:02:17;;;;;;;8.70;4.88;;;;;;;;;;2557211;23;19993;-96
2023/07/15 03:03:20;;;;;;;10.20;5.10;;;;;;;;;;2569487;23;20080;-96
2023/07/15 03:04:20;;;;;;;9.57;4.80;;;;;;;;;;2544982;23;20036;-96
2023/07/15 03:05:21;;;;;;;8.70;4.60;;;;;;;;;;2544891;23;20462;-94
2023/07/15 03:06:21;;;;;;;11.20;5.70;;;;;;;;;;2545017;23;19998;-96
2023/07/15 03:07:28;;;;;;;11.23;5.35;;;;;;;;;;2561689;23;19997;-96
2023/07/15 03:08:29;;;;;;;9.77;4.82;;;;;;;;;;2548732;23;20001;-96
2023/07/15 03:09:35;;;;;;;7.38;5.63;;;;;;;;;;2537058;23;20004;-96
2023/07/15 03:10:36;;;;;;;10.07;5.82;;;;;;;;;;2535331;23;20119;-96
2023/07/15 03:11:39;;;;;;;11.02;6.10;;;;;;;;;;2524103;23;20007;-96
2023/07/15 03:12:44;;;;;;;11.25;6.05;;;;;;;;;;2547104;23;20005;-96
2023/07/15 03:13:44;;;;;;;12.32;6.85;;;;;;;;;;2557686;23;20004;-96
2023/07/15 03:14:45;;;;;;;7.35;6.05;;;;;;;;;;2557916;23;20004;-96
2023/07/15 03:15:46;;;;;;;13.23;6.78;;;;;;;;;;2545674;23;20116;-95
2023/07/15 03:16:49;;;;;;;8.68;6.20;;;;;;;;;;2546565;23;20002;-94
2023/07/15 03:17:50;;;;;;;11.32;6.93;;;;;;;;;;2546500;23;20076;-95
2023/07/15 03:24:27;;;;;;;12.82;6.65;;;;;;;;;;2539898;23;20427;-96
2023/07/15 03:25:30;;;;;;;9.73;6.63;;;;;;;;;;2519969;23;19998;-96
2023/07/15 03:26:33;;;;;;;11.40;6.68;;;;;;;;;;2536535;23;20065;-96
2023/07/15 03:27:34;;;;;;;10.18;7.00;;;;;;;;;;2549020;23;19998;-96
2023/07/15 03:28:34;;;;;;;12.15;7.18;;;;;;;;;;2534304;23;20040;-95
2023/07/15 03:29:36;;;;;;;14.15;8.07;;;;;;;;;;2535168;23;20002;-96
2023/07/15 03:30:39;;;;;;;10.15;6.57;;;;;;;;;;2553513;23;20005;-95
2023/07/15 03:31:42;;;;;;;12.48;7.53;;;;;;;;;;2552851;23;20066;-96
2023/07/15 03:32:56;;;;;;;12.45;7.88;;;;;;;;;;2553609;23;19997;-96
2023/07/15 03:33:57;;;;;;;12.13;7.88;;;;;;;;;;2555913;23;20033;-95
2023/07/15 03:34:57;;;;;;;11.70;7.90;;;;;;;;;;2552116;23;20001;-96
2023/07/15 03:39:54;;;;;;;7.90;7.10;;;;;;;;;;2540046;23;19993;-96
2023/07/15 03:41:26;;;;;;;9.07;7.03;;;;;;;;;;2539946;23;19986;-96
2023/07/15 03:42:28;;;;;;;11.00;6.60;;;;;;;;;;2526845;23;20003;-96
2023/07/15 03:43:29;;;;;;;10.07;6.88;;;;;;;;;;2563229;23;19989;-96
2023/07/15 03:44:32;;;;;;;10.48;7.07;;;;;;;;;;2559230;23;20013;-96
2023/07/15 03:48:20;;;;;;;11.90;7.00;;;;;;;;;;2563400;23;20363;-96
2023/07/15 03:49:38;;;;;;;13.68;7.20;;;;;;;;;;2548329;23;20093;-96
2023/07/15 03:50:40;;;;;;;11.48;6.82;;;;;;;;;;2555377;23;20017;-96
2023/07/15 03:51:40;;;;;;;11.27;7.22;;;;;;;;;;2533603;23;20109;-96
2023/07/15 03:52:41;;;;;;;10.20;7.65;;;;;;;;;;2535342;23;20064;-96
2023/07/15 03:53:42;;;;;;;10.73;7.72;;;;;;;;;;2550032;23;20013;-96
2023/07/15 03:54:43;;;;;;;10.70;7.10;;;;;;;;;;2562348;23;20005;-95
2023/07/15 03:55:46;;;;;;;9.77;6.82;;;;;;;;;;2553362;23;20001;-93
2023/07/15 03:56:56;;;;;;;9.77;7.03;;;;;;;;;;2552349;23;20068;-95
2023/07/15 03:57:57;;;;;;;12.70;7.37;;;;;;;;;;2553063;23;20005;-95
2023/07/15 03:59:01;;;;;;;11.75;7.28;;;;;;;;;;2559344;23;20091;-96
2023/07/15 04:00:15;;;;;;;9.55;7.15;;;;;;;;;;2547834;23;20021;-96
2023/07/15 04:01:15;;;;;;;10.48;6.63;;;;;;;;;;2568013;23;20005;-96
2023/07/15 04:11:43;;;;;;;12.82;6.70;;;;;;;;;;2541465;23;20120;-96
2023/07/15 04:13:05;;;;;;;10.27;7.15;;;;;;;;;;2557637;23;20075;-96
2023/07/15 04:14:06;;;;;;;15.63;7.93;;;;;;;;;;2116346;23;10194330;-96
2023/07/15 04:15:10;;;;;;;11.05;6.90;;;;;;;;;;2545277;23;20132;-96
2023/07/15 04:16:14;;;;;;;10.18;6.60;;;;;;;;;;2546378;23;20513;-96
2023/07/15 04:17:31;;;;;;;14.63;7.40;;;;;;;;;;2563125;23;19997;-96
2023/07/15 04:18:42;;;;;;;10.90;6.95;;;;;;;;;;2550476;23;20009;-96
2023/07/15 04:19:54;;;;;;;12.20;7.32;;;;;;;;;;2543927;23;19998;-96
2023/07/15 04:21:03;;;;;;;9.57;6.60;;;;;;;;;;2552843;23;20007;-96
2023/07/15 04:22:08;;;;;;;12.70;7.20;;;;;;;;;;2550626;23;20036;-96
2023/07/15 04:24:31;;;;;;;12.85;7.10;;;;;;;;;;2563315;23;20107;-96
2023/07/15 04:25:54;;;;;;;11.80;6.90;;;;;;;;;;2088513;23;10879715;-96
2023/07/15 04:28:09;;;;;;;14.27;7.40;;;;;;;;;;2555992;23;20009;-94
2023/07/15 04:29:10;;;;;;;10.55;7.25;;;;;;;;;;2542757;23;20010;-96
2023/07/15 04:30:12;;;;;;;15.30;7.15;;;;;;;;;;2521555;23;20001;-96
2023/07/15 04:31:12;;;;;;;9.23;6.60;;;;;;;;;;2095153;23;10113617;-95
2023/07/15 04:32:23;;;;;;;12.73;7.05;;;;;;;;;;2521735;23;20301;-96
2023/07/15 04:33:40;;;;;;;13.13;8.05;;;;;;;;;;2534098;23;19994;-96
2023/07/15 04:34:52;;;;;;;12.70;6.93;;;;;;;;;;2536476;23;20510;-96
2023/07/15 04:35:55;;;;;;;12.27;7.95;;;;;;;;;;2534227;23;20089;-96
2023/07/15 04:36:56;;;;;;;10.82;7.63;;;;;;;;;;2533717;23;20010;-95
2023/07/15 04:37:56;;;;;;;11.75;6.65;;;;;;;;;;2533224;23;20002;-95
2023/07/15 04:39:19;;;;;;;8.80;6.85;;;;;;;;;;2533311;23;20006;-95
2023/07/15 04:40:25;;;;;;;12.07;6.95;;;;;;;;;;2527468;23;20004;-95
2023/07/15 04:41:25;;;;;;;8.30;6.85;;;;;;;;;;2525823;23;20002;-95
2023/07/15 04:42:26;;;;;;;13.32;7.20;;;;;;;;;;2520592;23;20434;-95
2023/07/15 04:43:36;;;;;;;9.30;7.00;;;;;;;;;;2520741;23;20086;-96
2023/07/15 04:44:36;;;;;;;15.18;7.00;;;;;;;;;;2523119;23;20456;-96
2023/07/15 04:45:37;;;;;;;12.63;6.55;;;;;;;;;;2532664;23;19998;-96
2023/07/15 04:46:38;;;;;;;8.35;6.47;;;;;;;;;;2520891;23;20008;-96
2023/07/15 04:47:39;;;;;;;9.73;6.63;;;;;;;;;;2532829;23;20001;-95
2023/07/15 04:48:39;;;;;;;9.75;6.68;;;;;;;;;;2533027;23;20300;-95
2023/07/15 04:49:40;;;;;;;8.95;7.00;;;;;;;;;;2521117;23;20078;-96
2023/07/15 04:50:40;;;;;;;12.35;7.15;;;;;;;;;;2520575;23;20070;-95
2023/07/15 04:51:41;;;;;;;12.30;7.28;;;;;;;;;;2520847;23;20448;-95
2023/07/15 04:52:41;;;;;;;11.48;6.70;;;;;;;;;;2533092;23;20130;-95
2023/07/15 04:53:43;;;;;;;11.07;6.60;;;;;;;;;;2520708;23;20006;-95
2023/07/15 04:54:43;;;;;;;11.57;6.90;;;;;;;;;;2532892;23;20465;-94
2023/07/15 04:55:50;;;;;;;9.85;6.35;;;;;;;;;;2532803;23;20096;-95
2023/07/15 04:56:51;;;;;;;12.57;6.35;;;;;;;;;;2522254;23;20082;-96
2023/07/15 04:57:56;;;;;;;12.82;6.47;;;;;;;;;;2525207;23;20439;-96
2023/07/15 04:58:57;;;;;;;10.85;6.47;;;;;;;;;;2538601;23;20012;-95
2023/07/15 04:59:57;;;;;;;10.32;6.60;;;;;;;;;;2522772;23;19995;-96
2023/07/15 05:00:57;;;;;;;10.75;6.60;;;;;;;;;;2521882;23;20005;-95
2023/07/15 05:02:07;;;;;;;10.15;6.60;;;;;;;;;;2535321;23;20093;-96
2023/07/15 05:03:13;;;;;;;9.95;6.28;;;;;;;;;;2536170;23;20016;-96
2023/07/15 05:04:26;;;;;;;8.82;5.97;;;;;;;;;;2517130;23;20074;-96
2023/07/15 05:05:28;;;;;;;11.32;6.40;;;;;;;;;;2502105;23;20133;-96
2023/07/15 05:06:39;;;;;;;8.51;5.94;;;;;;;;;;2522156;23;10276964;-96
2023/07/15 05:07:50;;;;;;;;;;;;;;;;;;;;;
2023/07/15 05:08:54;;;;;;;9.38;6.40;;;;;;;;;;2539389;23;20002;-96
2023/07/15 05:09:54;;;;;;;10.43;5.88;;;;;;;;;;2533166;23;20145;-96
2023/07/15 05:10:55;;;;;;;11.10;6.63;;;;;;;;;;2522115;23;19999;-96
2023/07/15 05:12:00;;;;;;;15.95;7.72;;;;;;;;;;2520189;23;20534;-96
2023/07/15 05:13:01;;;;;;;10.55;6.18;;;;;;;;;;2537234;23;20438;-96
2023/07/15 05:14:08;;;;;;;8.48;5.45;;;;;;;;;;2520947;23;20089;-95
2023/07/15 05:15:08;;;;;;;11.60;5.72;;;;;;;;;;2534847;23;20002;-96
2023/07/15 05:16:09;;;;;;;11.10;6.30;;;;;;;;;;2533641;23;20002;-96
2023/07/15 05:17:12;;;;;;;14.68;5.75;;;;;;;;;;2524253;23;20350;-96
2023/07/15 05:18:15;;;;;;;8.93;5.10;;;;;;;;;;2532250;23;20005;-96
2023/07/15 05:19:20;;;;;;;11.23;5.60;;;;;;;;;;2532779;23;20001;-95
2023/07/15 05:20:38;;;;;;;11.45;5.18;;;;;;;;;;2549560;23;19994;-96
2023/07/15 05:21:39;;;;;;;8.95;5.63;;;;;;;;;;2535386;23;20005;-96
2023/07/15 05:22:49;;;;;;;10.45;5.25;;;;;;;;;;2521445;23;20002;-95
2023/07/15 05:23:50;;;;;;;8.70;5.15;;;;;;;;;;2523304;23;19999;-96
2023/07/15 05:24:50;;;;;;;9.38;5.88;;;;;;;;;;2520351;23;20093;-96
2023/07/15 05:25:51;;;;;;;8.82;5.20;;;;;;;;;;2521251;23;20122;-96
2023/07/15 05:31:27;;;;;;;12.45;5.82;;;;;;;;;;2531090;23;20369;-96
2023/07/15 05:32:41;;;;;;;15.50;11.40;;;;;;;;;;2538254;23;20046;-96
2023/07/15 05:33:44;;;;;;;12.45;6.68;;;;;;;;;;2520717;23;20003;-96
2023/07/15 05:34:45;;;;;;;12.15;7.30;;;;;;;;;;2511420;23;20015;-96
2023/07/15 05:35:45;;;;;;;9.75;6.20;;;;;;;;;;2520901;23;20026;-95
2023/07/15 05:36:48;;;;;;;9.13;5.45;;;;;;;;;;2526515;23;20373;-95
2023/07/15 05:37:48;;;;;;;11.00;6.15;;;;;;;;;;2529094;23;20017;-94
2023/07/15 05:38:52;;;;;;;10.23;5.30;;;;;;;;;;2536937;23;20010;-96
2023/07/15 05:39:54;;;;;;;8.95;5.28;;;;;;;;;;2535603;23;19998;-96
2023/07/15 05:40:57;;;;;;;10.10;5.72;;;;;;;;;;2533931;23;20433;-96
2023/07/15 05:41:58;;;;;;;12.13;8.52;;;;;;;;;;2521866;23;20002;-96
2023/07/15 05:42:58;;;;;;;12.00;9.18;;;;;;;;;;2520838;23;20002;-96
2023/07/15 05:43:59;;;;;;;13.52;8.52;;;;;;;;;;2520569;23;20006;-96
2023/07/15 05:45:15;;;;;;;13.18;8.95;;;;;;;;;;2532652;23;20092;-96
2023/07/15 05:46:21;;;;;;;13.95;10.48;;;;;;;;;;2532989;23;20394;-96
2023/07/15 05:47:22;;;;;;;17.75;10.77;;;;;;;;;;2521733;23;20053;-96
2023/07/15 05:48:25;;;;;;;15.07;10.02;;;;;;;;;;2532833;23;20339;-96
2023/07/15 05:49:26;;;;;;;15.88;9.20;;;;;;;;;;2532913;23;19994;-96
2023/07/15 05:50:36;;;;;;;;;;;;;;;;;;;;;
2023/07/15 05:51:45;;;;;;;;;;;;;;;;;;2459284;23;10062586;-96
2023/07/15 05:52:55;;;;;;;14.93;8.95;;;;;;;;;;2534808;23;19996;-95
2023/07/15 05:53:58;;;;;;;15.07;8.98;;;;;;;;;;2539600;23;19998;-95
2023/07/15 05:55:06;;;;;;;14.93;8.70;;;;;;;;;;2534440;23;20013;-94
2023/07/15 05:56:10;;;;;;;13.73;8.70;;;;;;;;;;2525229;23;20084;-96
2023/07/15 05:57:13;;;;;;;11.32;8.18;;;;;;;;;;2523747;23;20460;-96
2023/07/15 05:58:14;;;;;;;13.50;8.52;;;;;;;;;;2538072;23;19990;-96
2023/07/15 05:59:14;;;;;;;14.55;8.73;;;;;;;;;;2532910;23;20503;-95
2023/07/15 06:00:15;;;;;;;16.98;8.30;;;;;;;;;;2521352;23;20024;-96
2023/07/15 06:01:16;;;;;;;12.20;7.68;;;;;;;;;;2520550;23;19994;-95
2023/07/15 06:02:19;;;;;;;11.55;7.20;;;;;;;;;;2521018;23;20081;-96
2023/07/15 06:03:25;;;;;;;12.00;7.40;;;;;;;;;;2086188;23;10325951;-96
2023/07/15 06:04:26;;;;;;;15.23;6.75;;;;;;;;;;2513475;23;19991;-96
2023/07/15 06:05:29;;;;;;;8.18;5.80;;;;;;;;;;2521027;23;20065;-96
2023/07/15 06:06:34;;;;;;;8.55;5.60;;;;;;;;;;2533011;23;20376;-96
2023/07/15 06:07:38;;;;;;;11.52;5.80;;;;;;;;;;2521835;23;20002;-96
2023/07/15 06:08:41;;;;;;;9.02;6.35;;;;;;;;;;2521811;23;20097;-96
2023/07/15 06:09:42;;;;;;;11.77;6.53;;;;;;;;;;2532897;23;20099;-96
2023/07/15 06:10:47;;;;;;;9.20;5.88;;;;;;;;;;2521007;23;20517;-96
2023/07/15 06:11:51;;;;;;;11.35;6.28;;;;;;;;;;2526172;23;20002;-96
2023/07/15 06:12:59;;;;;;;10.15;6.32;;;;;;;;;;2521915;23;20089;-96
2023/07/15 06:14:13;;;;;;;;;;;;;;;;;;;;;
2023/07/15 06:15:15;;;;;;;8.30;5.53;;;;;;;;;;2540313;23;19993;-96
2023/07/15 06:16:16;;;;;;;10.38;6.32;;;;;;;;;;2532932;23;19990;-96
2023/07/15 06:17:24;;;;;;;11.38;5.82;;;;;;;;;;2521184;23;20005;-95
2023/07/15 06:18:27;;;;;;;10.68;5.97;;;;;;;;;;2525246;23;20018;-96
2023/07/15 06:19:30;;;;;;;8.15;5.32;;;;;;;;;;2521949;23;20006;-96
2023/07/15 06:20:39;;;;;;;8.68;5.20;;;;;;;;;;2522166;23;20002;-96
2023/07/15 06:21:52;;;;;;;;;;;;;;;;;;;;;
2023/07/15 06:22:57;;;;;;;8.43;5.85;;;;;;;;;;2539906;23;20001;-96
2023/07/15 06:24:09;;;;;;;9.77;5.70;;;;;;;;;;2537195;23;20013;-96
2023/07/15 06:25:13;;;;;;;12.38;5.63;;;;;;;;;;2540823;23;19998;-96
2023/07/15 06:26:26;;;;;;;10.52;5.32;;;;;;;;;;2534629;23;19994;-96
2023/07/15 06:27:27;;;;;;;6.35;5.38;;;;;;;;;;2523448;23;19995;-96
2023/07/15 06:29:13;;;;;;;10.20;4.90;;;;;;;;;;2521523;23;20077;-96
2023/07/15 06:30:35;;;;;;;10.15;5.97;;;;;;;;;;2542092;23;20001;-96
2023/07/15 06:31:43;;;;;;;6.78;5.20;;;;;;;;;;2533287;23;20080;-95
2023/07/15 06:32:44;;;;;;;9.18;5.35;;;;;;;;;;2527063;23;20122;-96
2023/07/15 06:33:54;;;;;;;7.93;5.55;;;;;;;;;;2521293;23;20006;-96
2023/07/15 06:35:02;;;;;;;9.82;5.65;;;;;;;;;;2538326;23;20069;-96
2023/07/15 06:36:10;;;;;;;10.30;5.65;;;;;;;;;;2541888;23;20004;-96
2023/07/15 06:37:13;;;;;;;9.32;5.72;;;;;;;;;;2534326;23;20004;-96
2023/07/15 06:38:22;;;;;;;9.65;5.50;;;;;;;;;;2512336;23;19995;-96
2023/07/15 06:58:09;;;;;;;9.98;5.82;;;;;;;;;;2493235;23;20003;-95
2023/07/15 06:59:59;;;;;;;9.45;5.60;;;;;;;;;;2479681;23;20000;-96
2023/07/15 07:07:22;;;;;;;10.63;5.57;;;;;;;;;;2563063;23;20044;-96
2023/07/15 07:08:26;;;;;;;14.32;5.75;;;;;;;;;;2563731;23;20001;-96
2023/07/15 07:09:31;;;;;;;12.55;6.07;;;;;;;;;;2547895;23;20447;-96
2023/07/15 07:11:06;;;;;;;13.40;5.30;;;;;;;;;;2537774;23;20056;-96
2023/07/15 07:12:19;;;;;;;;;;;;;;;;;;;;;
2023/07/15 07:15:32;;;;;;;9.55;5.80;;;;;;;;;;2514547;23;19995;-96
2023/07/15 07:20:58;;;;;;;9.98;5.38;;;;;;;;;;2505565;23;20019;-96